createdAt,value
2019-02-04T00:01:42.513Z,0.30
2019-02-04T00:04:08.876Z,0.20
2019-02-04T00:06:35.246Z,0.30
2019-02-04T00:09:01.560Z,0.30
2019-02-04T00:11:28.141Z,0.30
2019-02-04T00:13:54.601Z,0.20
2019-02-04T00:16:21.103Z,0.20
2019-02-04T00:18:47.576Z,0.20
2019-02-04T00:21:14.169Z,0.20
2019-02-04T00:23:40.428Z,0.30
2019-02-04T00:26:06.785Z,0.40
2019-02-04T00:28:33.165Z,0.30
2019-02-04T00:30:59.542Z,0.30
2019-02-04T00:33:25.912Z,0.20
2019-02-04T00:35:52.592Z,0.30
2019-02-04T00:38:18.967Z,0.30
2019-02-04T00:40:45.376Z,0.30
2019-02-04T00:43:11.845Z,0.20
2019-02-04T00:45:38.131Z,0.20
2019-02-04T00:48:04.517Z,0.20
2019-02-04T00:50:30.871Z,0.20
2019-02-04T00:52:57.183Z,0.20
2019-02-04T00:55:23.739Z,0.30
2019-02-04T00:57:50.190Z,0.20
2019-02-04T01:00:20.294Z,0.10
2019-02-04T01:02:46.771Z,0.10
2019-02-04T01:05:16.833Z,0.10
2019-02-04T01:07:43.320Z,0.30
2019-02-04T01:10:13.384Z,0.20
2019-02-04T01:12:39.684Z,0.10
2019-02-04T01:15:06.136Z,0.20
2019-02-04T01:17:32.495Z,0.10
2019-02-04T01:19:58.896Z,0.20
2019-02-04T01:22:25.248Z,0.20
2019-02-04T01:24:51.630Z,0.10
2019-02-04T01:27:18.228Z,0.20
2019-02-04T01:29:44.691Z,0.20
2019-02-04T01:32:11.084Z,0.10
2019-02-04T01:34:37.436Z,0.20
2019-02-04T01:37:03.956Z,0.20
2019-02-04T01:39:30.217Z,0.30
2019-02-04T01:41:56.576Z,0.20
2019-02-04T01:44:22.846Z,0.30
2019-02-04T01:46:51.577Z,0.30
2019-02-04T01:49:17.485Z,0.40
2019-02-04T01:51:43.739Z,0.20
2019-02-04T01:54:10.029Z,0.10
2019-02-04T01:56:36.396Z,0.10
2019-02-04T01:59:02.842Z,0.20
2019-02-04T02:01:29.138Z,0.30
2019-02-04T02:03:55.391Z,0.20
2019-02-04T02:06:21.968Z,0.20
2019-02-04T02:08:48.255Z,0.20
2019-02-04T02:11:14.528Z,0.30
2019-02-04T02:13:40.881Z,0.20
2019-02-04T02:16:07.247Z,0.30
2019-02-04T02:18:33.520Z,0.30
2019-02-04T02:20:59.788Z,0.20
2019-02-04T02:23:26.555Z,0.10
2019-02-04T02:25:52.936Z,0.10
2019-02-04T02:28:19.187Z,0.20
2019-02-04T02:30:45.572Z,0.10
2019-02-04T02:33:11.837Z,0.10
2019-02-04T02:35:38.141Z,0.20
2019-02-04T02:38:04.613Z,0.10
2019-02-04T02:40:31.913Z,0.10
2019-02-04T02:42:58.845Z,0.10
2019-02-04T02:45:25.323Z,0.20
2019-02-04T02:47:51.576Z,0.20
2019-02-04T02:50:18.165Z,0.20
2019-02-04T02:52:44.655Z,0.20
2019-02-04T02:55:14.287Z,0.30
2019-02-04T02:57:40.716Z,0.30
2019-02-04T03:00:10.774Z,0.40
2019-02-04T03:02:37.220Z,0.40
2019-02-04T03:05:06.924Z,0.40
2019-02-04T03:07:33.205Z,0.30
2019-02-04T03:09:59.504Z,0.30
2019-02-04T03:12:25.860Z,0.20
2019-02-04T03:14:52.145Z,0.20
2019-02-04T03:17:18.901Z,0.20
2019-02-04T03:19:45.163Z,0.10
2019-02-04T03:22:11.532Z,0.10
2019-02-04T03:24:37.837Z,0.10
2019-02-04T03:27:04.194Z,0.10
2019-02-04T03:29:30.438Z,0.10
2019-02-04T03:31:56.706Z,0.10
2019-02-04T03:34:23.094Z,0.10
2019-02-04T03:36:49.660Z,0.00
2019-02-04T03:39:16.062Z,0.00
2019-02-04T03:41:42.423Z,0.00
2019-02-04T03:44:08.783Z,0.00
2019-02-04T03:46:35.153Z,0.10
2019-02-04T03:49:01.630Z,0.10
2019-02-04T03:51:27.982Z,0.00
2019-02-04T03:53:54.368Z,0.10
2019-02-04T03:56:20.746Z,0.00
2019-02-04T03:58:47.132Z,-0.10
2019-02-04T04:01:13.412Z,0.00
2019-02-04T04:03:39.873Z,-0.20
2019-02-04T04:06:06.261Z,-0.10
2019-02-04T04:08:32.657Z,-0.20
2019-02-04T04:10:59.021Z,-0.10
2019-02-04T04:13:25.572Z,-0.10
2019-02-04T04:15:51.845Z,-0.10
2019-02-04T04:18:18.296Z,-0.10
2019-02-04T04:20:44.856Z,-0.10
2019-02-04T04:23:11.257Z,-0.10
2019-02-04T04:25:37.611Z,-0.20
2019-02-04T04:28:03.977Z,0.00
2019-02-04T04:30:30.440Z,-0.10
2019-02-04T04:32:57.135Z,-0.20
2019-02-04T04:35:23.857Z,-0.20
2019-02-04T04:37:50.356Z,-0.10
2019-02-04T04:40:16.808Z,-0.10
2019-02-04T04:42:43.479Z,-0.20
2019-02-04T04:45:18.228Z,-0.30
2019-02-04T04:47:44.475Z,-0.20
2019-02-04T04:50:11.166Z,-0.30
2019-02-04T04:52:37.537Z,-0.40
2019-02-04T04:55:10.499Z,-0.40
2019-02-04T04:57:36.870Z,-0.30
2019-02-04T05:00:06.933Z,-0.40
2019-02-04T05:02:33.220Z,-0.30
2019-02-04T05:04:59.674Z,-0.30
2019-02-04T05:07:25.955Z,-0.50
2019-02-04T05:09:52.233Z,-0.50
2019-02-04T05:12:18.593Z,-0.40
2019-02-04T05:14:44.868Z,-0.40
2019-02-04T05:17:11.153Z,-0.30
2019-02-04T05:19:37.425Z,-0.40
2019-02-04T05:22:03.917Z,-0.30
2019-02-04T05:24:30.245Z,-0.30
2019-02-04T05:26:56.500Z,-0.30
2019-02-04T05:29:22.785Z,-0.30
2019-02-04T05:31:49.037Z,-0.20
2019-02-04T05:34:15.335Z,-0.20
2019-02-04T05:36:41.699Z,-0.20
2019-02-04T05:39:08.232Z,-0.20
2019-02-04T05:41:34.880Z,-0.20
2019-02-04T05:44:01.221Z,-0.20
2019-02-04T05:46:27.499Z,-0.20
2019-02-04T05:48:53.774Z,-0.30
2019-02-04T05:51:20.066Z,-0.30
2019-02-04T05:53:46.448Z,-0.30
2019-02-04T05:56:12.708Z,-0.30
2019-02-04T05:58:39.051Z,-0.30
2019-02-04T06:01:05.836Z,-0.40
2019-02-04T06:03:32.093Z,-0.40
2019-02-04T06:05:58.475Z,-0.40
2019-02-04T06:08:24.771Z,-0.60
2019-02-04T06:10:51.049Z,-0.70
2019-02-04T06:13:17.316Z,-0.80
2019-02-04T06:15:43.581Z,-0.80
2019-02-04T06:18:09.960Z,-0.90
2019-02-04T06:20:36.611Z,-0.90
2019-02-04T06:23:03.081Z,-1.10
2019-02-04T06:25:29.394Z,-1.20
2019-02-04T06:27:55.753Z,-1.20
2019-02-04T06:30:22.217Z,-1.20
2019-02-04T06:32:48.612Z,-1.30
2019-02-04T06:35:16.704Z,-1.30
2019-02-04T06:37:43.580Z,-1.40
2019-02-04T06:40:12.144Z,-1.40
2019-02-04T06:42:38.621Z,-1.40
2019-02-04T06:45:08.581Z,-1.40
2019-02-04T06:47:35.039Z,-1.40
2019-02-04T06:50:01.537Z,-1.40
2019-02-04T06:52:27.828Z,-1.40
2019-02-04T06:54:54.683Z,-1.40
2019-02-04T06:57:21.097Z,-1.40
2019-02-04T06:59:47.500Z,-1.40
2019-02-04T07:02:13.865Z,-1.40
2019-02-04T07:04:40.184Z,-1.40
2019-02-04T07:07:06.579Z,-1.40
2019-02-04T07:09:33.027Z,-1.40
2019-02-04T07:11:59.427Z,-1.40
2019-02-04T07:14:26.256Z,-1.50
2019-02-04T07:16:52.588Z,-1.50
2019-02-04T07:19:24.540Z,-1.50
2019-02-04T07:21:47.064Z,-1.50
2019-02-04T07:24:42.481Z,-1.50
2019-02-04T07:27:01.289Z,-1.50
2019-02-04T07:29:27.531Z,-1.40
2019-02-04T07:31:53.926Z,-1.40
2019-02-04T07:34:20.337Z,-1.40
2019-02-04T07:36:46.636Z,-1.40
2019-02-04T07:39:12.912Z,-1.30
2019-02-04T07:41:39.280Z,-1.30
2019-02-04T07:44:05.750Z,-1.30
2019-02-04T07:46:32.335Z,-1.30
2019-02-04T07:48:58.707Z,-1.30
2019-02-04T07:51:24.980Z,-1.30
2019-02-04T07:53:51.360Z,-1.30
2019-02-04T07:56:17.645Z,-1.30
2019-02-04T07:58:44.012Z,-1.20
2019-02-04T08:01:10.391Z,-1.20
2019-02-04T08:03:36.857Z,-1.20
2019-02-04T08:06:03.308Z,-1.20
2019-02-04T08:08:31.900Z,-1.10
2019-02-04T08:10:57.864Z,-1.10
2019-02-04T08:13:24.236Z,-1.10
2019-02-04T08:15:50.603Z,-1.00
2019-02-04T08:18:16.974Z,-0.90
2019-02-04T08:20:43.457Z,-0.80
2019-02-04T08:23:10.028Z,-0.80
2019-02-04T08:25:36.673Z,-0.80
2019-02-04T08:28:03.163Z,-0.80
2019-02-04T08:30:34.323Z,-0.80
2019-02-04T08:33:00.800Z,-0.80
2019-02-04T08:35:27.510Z,-0.70
2019-02-04T08:37:53.972Z,-0.60
2019-02-04T08:40:20.352Z,-0.60
2019-02-04T08:42:46.726Z,-0.50
2019-02-04T08:45:13.765Z,-0.40
2019-02-04T08:47:40.249Z,-0.40
2019-02-04T08:50:10.214Z,-0.30
2019-02-04T08:52:36.474Z,-0.20
2019-02-04T08:55:04.864Z,-0.10
2019-02-04T08:57:31.353Z,0.00
2019-02-04T08:59:57.711Z,0.10
2019-02-04T09:02:24.394Z,0.10
2019-02-04T09:04:50.676Z,0.20
2019-02-04T09:07:16.944Z,0.30
2019-02-04T09:09:43.324Z,0.30
2019-02-04T09:12:11.190Z,0.40
2019-02-04T09:14:37.584Z,0.50
2019-02-04T09:17:03.961Z,0.60
2019-02-04T09:19:30.227Z,0.60
2019-02-04T09:21:56.478Z,0.60
2019-02-04T09:24:23.259Z,0.70
2019-02-04T09:26:49.526Z,0.80
2019-02-04T09:29:15.773Z,0.90
2019-02-04T09:31:42.077Z,0.90
2019-02-04T09:34:08.471Z,1.00
2019-02-04T09:36:35.017Z,1.00
2019-02-04T09:39:01.335Z,1.10
2019-02-04T09:41:27.799Z,1.10
2019-02-04T09:43:54.483Z,1.20
2019-02-04T09:46:20.846Z,1.20
2019-02-04T09:48:47.136Z,1.30
2019-02-04T09:51:13.397Z,1.30
2019-02-04T09:53:39.653Z,1.40
2019-02-04T09:56:06.038Z,1.40
2019-02-04T09:58:32.389Z,1.40
2019-02-04T10:00:58.910Z,1.50
2019-02-04T10:03:25.768Z,1.50
2019-02-04T10:05:52.125Z,1.60
2019-02-04T10:08:18.516Z,1.60
2019-02-04T10:10:44.887Z,1.60
2019-02-04T10:13:11.336Z,1.70
2019-02-04T10:15:45.668Z,1.70
2019-02-04T10:18:11.512Z,1.70
2019-02-04T10:20:38.151Z,1.80
2019-02-04T10:23:05.293Z,1.90
2019-02-04T10:25:34.947Z,2.00
2019-02-04T10:28:01.660Z,2.10
2019-02-04T10:30:28.188Z,2.10
2019-02-04T10:32:54.663Z,2.20
2019-02-04T10:35:21.116Z,2.30
2019-02-04T10:37:49.616Z,2.40
2019-02-04T10:40:19.179Z,2.50
2019-02-04T10:42:45.659Z,2.60
2019-02-04T10:45:13.808Z,2.70
2019-02-04T10:47:40.220Z,2.80
2019-02-04T10:50:21.867Z,2.80
2019-02-04T10:52:48.135Z,2.80
2019-02-04T10:55:14.589Z,2.90
2019-02-04T10:57:41.078Z,2.80
2019-02-04T11:00:11.335Z,2.90
2019-02-04T11:02:37.835Z,2.80
2019-02-04T11:05:07.483Z,2.80
2019-02-04T11:07:34.261Z,2.90
2019-02-04T11:10:00.763Z,2.90
2019-02-04T11:12:27.127Z,2.90
2019-02-04T11:14:53.417Z,2.90
2019-02-04T11:17:19.742Z,2.90
2019-02-04T11:19:45.997Z,3.00
2019-02-04T11:22:12.533Z,3.00
2019-02-04T11:24:38.833Z,3.00
2019-02-04T11:27:05.738Z,3.00
2019-02-04T11:29:32.201Z,3.10
2019-02-04T11:31:58.683Z,3.20
2019-02-04T11:34:24.933Z,3.20
2019-02-04T11:36:51.522Z,3.20
2019-02-04T11:39:17.784Z,3.30
2019-02-04T11:41:44.029Z,3.30
2019-02-04T11:44:10.353Z,3.30
2019-02-04T11:46:36.885Z,3.30
2019-02-04T11:49:03.906Z,3.40
2019-02-04T11:51:30.307Z,3.40
2019-02-04T11:53:56.561Z,3.50
2019-02-04T11:56:23.041Z,3.50
2019-02-04T11:58:49.408Z,3.50
2019-02-04T12:01:15.791Z,3.50
2019-02-04T12:03:42.287Z,3.60
2019-02-04T12:06:08.827Z,3.60
2019-02-04T12:08:35.222Z,3.70
2019-02-04T12:11:03.786Z,3.70
2019-02-04T12:13:30.056Z,3.70
2019-02-04T12:15:56.721Z,3.80
2019-02-04T12:18:23.195Z,3.80
2019-02-04T12:20:49.558Z,3.80
2019-02-04T12:23:16.446Z,3.80
2019-02-04T12:25:42.809Z,3.80
2019-02-04T12:28:09.273Z,3.80
2019-02-04T12:30:40.871Z,3.90
2019-02-04T12:33:09.247Z,3.90
2019-02-04T12:35:35.668Z,3.90
2019-02-04T12:38:02.136Z,4.00
2019-02-04T12:40:28.973Z,4.00
2019-02-04T12:42:55.469Z,4.10
2019-02-04T12:45:24.924Z,4.10
2019-02-04T12:47:51.510Z,4.20
2019-02-04T12:50:17.949Z,4.20
2019-02-04T12:52:44.325Z,4.40
2019-02-04T12:55:22.405Z,4.40
2019-02-04T12:57:48.883Z,4.50
2019-02-04T13:00:20.861Z,4.60
2019-02-04T13:02:47.322Z,4.70
2019-02-04T13:05:17.176Z,4.70
2019-02-04T13:07:43.605Z,4.70
2019-02-04T13:10:13.152Z,4.70
2019-02-04T13:12:39.944Z,4.70
2019-02-04T13:15:15.814Z,4.70
2019-02-04T13:17:42.204Z,4.60
2019-02-04T13:20:11.981Z,4.50
2019-02-04T13:22:38.337Z,4.50
2019-02-04T13:25:08.424Z,4.40
2019-02-04T13:27:34.910Z,4.40
2019-02-04T13:30:01.355Z,4.30
2019-02-04T13:32:27.639Z,4.30
2019-02-04T13:34:54.006Z,4.30
2019-02-04T13:37:20.455Z,4.30
2019-02-04T13:39:46.836Z,4.30
2019-02-04T13:42:13.180Z,4.30
2019-02-04T13:44:39.585Z,4.30
2019-02-04T13:47:06.005Z,4.30
2019-02-04T13:49:32.212Z,4.20
2019-02-04T13:51:58.584Z,4.10
2019-02-04T13:54:25.045Z,4.10
2019-02-04T13:56:51.394Z,4.10
2019-02-04T13:59:17.689Z,4.10
2019-02-04T14:01:44.049Z,4.20
2019-02-04T14:04:10.604Z,4.30
2019-02-04T14:06:36.981Z,4.30
2019-02-04T14:09:07.199Z,4.50
2019-02-04T14:11:33.440Z,4.60
2019-02-04T14:13:59.789Z,4.80
2019-02-04T14:16:26.151Z,5.00
2019-02-04T14:18:52.436Z,5.20
2019-02-04T14:21:19.295Z,5.40
2019-02-04T14:23:45.535Z,5.60
2019-02-04T14:26:11.919Z,5.80
2019-02-04T14:28:38.347Z,6.10
2019-02-04T14:31:04.760Z,6.40
2019-02-04T14:33:31.049Z,6.60
2019-02-04T14:35:57.395Z,6.80
2019-02-04T14:38:23.852Z,7.00
2019-02-04T14:40:50.432Z,7.10
2019-02-04T14:43:20.480Z,7.30
2019-02-04T14:45:53.529Z,7.50
2019-02-04T14:48:41.815Z,7.70
2019-02-04T14:51:18.191Z,7.80
2019-02-04T14:54:00.677Z,8.00
2019-02-04T14:56:42.596Z,8.00
2019-02-04T14:59:18.021Z,8.10
2019-02-04T15:02:04.898Z,8.20
2019-02-04T15:04:40.419Z,8.20
2019-02-04T15:07:33.317Z,8.30
2019-02-04T15:10:12.415Z,8.30
2019-02-04T15:13:10.328Z,8.40
2019-02-04T15:15:43.368Z,8.40
2019-02-04T15:18:28.207Z,8.50
2019-02-04T15:21:16.700Z,8.50
2019-02-04T15:23:49.786Z,8.50
2019-02-04T15:26:25.884Z,8.50
2019-02-04T15:29:04.797Z,8.40
2019-02-04T15:31:51.389Z,8.40
2019-02-04T15:34:39.240Z,8.30
2019-02-04T15:37:15.589Z,8.20
2019-02-04T15:39:54.700Z,8.00
2019-02-04T15:42:56.674Z,7.80
2019-02-04T15:45:47.576Z,7.60
2019-02-04T15:48:16.560Z,7.40
2019-02-04T15:50:58.583Z,7.10
2019-02-04T15:53:24.968Z,6.80
2019-02-04T15:55:51.448Z,6.50
2019-02-04T15:58:17.980Z,6.30
2019-02-04T16:00:44.878Z,6.00
2019-02-04T16:03:11.194Z,5.70
2019-02-04T16:05:37.487Z,5.40
2019-02-04T16:08:03.940Z,5.20
2019-02-04T16:10:30.224Z,4.90
2019-02-04T16:12:57.502Z,4.70
2019-02-04T16:15:23.761Z,4.50
2019-02-04T16:17:50.253Z,4.30
2019-02-04T16:20:20.016Z,4.00
2019-02-04T16:22:57.958Z,3.80
2019-02-04T16:25:15.176Z,3.60
2019-02-04T16:27:41.524Z,3.40
2019-02-04T16:30:13.951Z,3.30
2019-02-04T16:32:40.429Z,3.10
2019-02-04T16:35:09.824Z,2.90
2019-02-04T16:37:36.171Z,2.80
2019-02-04T16:40:05.362Z,2.60
2019-02-04T16:42:31.768Z,2.50
2019-02-04T16:44:58.462Z,2.40
2019-02-04T16:47:24.701Z,2.30
2019-02-04T16:49:51.293Z,2.10
2019-02-04T16:52:17.690Z,2.00
2019-02-04T16:54:44.283Z,1.90
2019-02-04T16:57:10.560Z,1.70
2019-02-04T16:59:37.026Z,1.50
2019-02-04T17:02:03.508Z,1.40
2019-02-04T17:04:29.809Z,1.30
2019-02-04T17:06:56.112Z,1.10
2019-02-04T17:09:22.493Z,1.10
2019-02-04T17:11:49.023Z,1.00
2019-02-04T17:14:15.803Z,0.90
2019-02-04T17:16:42.252Z,0.80
2019-02-04T17:19:08.647Z,0.80
2019-02-04T17:21:34.999Z,0.70
2019-02-04T17:24:01.443Z,0.60
2019-02-04T17:26:28.199Z,0.50
2019-02-04T17:29:05.705Z,0.40
2019-02-04T17:31:32.316Z,0.20
2019-02-04T17:33:58.672Z,0.10
2019-02-04T17:36:25.145Z,0.00
2019-02-04T17:38:51.645Z,-0.10
2019-02-04T17:41:18.160Z,-0.20
2019-02-04T17:43:44.457Z,-0.30
2019-02-04T17:46:11.024Z,-0.30
2019-02-04T17:48:37.626Z,-0.40
2019-02-04T17:51:04.080Z,-0.50
2019-02-04T17:53:34.400Z,-0.50
2019-02-04T17:55:58.957Z,-0.60
2019-02-04T17:58:25.314Z,-0.70
2019-02-04T18:00:51.855Z,-0.80
2019-02-04T18:03:18.292Z,-0.90
2019-02-04T18:05:47.160Z,-1.00
2019-02-04T18:08:13.721Z,-1.10
2019-02-04T18:10:40.564Z,-1.10
2019-02-04T18:13:07.032Z,-1.30
2019-02-04T18:15:33.732Z,-1.40
2019-02-04T18:18:00.085Z,-1.50
2019-02-04T18:20:26.528Z,-1.50
2019-02-04T18:22:52.997Z,-1.60
2019-02-04T18:25:20.712Z,-1.70
2019-02-04T18:27:47.465Z,-1.90
2019-02-04T18:30:17.666Z,-2.00
2019-02-04T18:32:43.972Z,-2.10
2019-02-04T18:35:13.074Z,-2.30
2019-02-04T18:37:39.443Z,-2.30
2019-02-04T18:40:12.029Z,-2.40
2019-02-04T18:42:38.948Z,-2.50
2019-02-04T18:45:08.980Z,-2.60
2019-02-04T18:47:35.280Z,-2.60
2019-02-04T18:50:01.819Z,-2.70
2019-02-04T18:52:28.748Z,-2.70
2019-02-04T18:54:55.176Z,-2.70
2019-02-04T18:57:21.942Z,-2.80
2019-02-04T18:59:48.248Z,-2.80
2019-02-04T19:02:14.668Z,-2.90
2019-02-04T19:04:45.528Z,-3.10
2019-02-04T19:07:12.066Z,-3.20
2019-02-04T19:09:38.385Z,-3.20
2019-02-04T19:12:05.002Z,-3.20
2019-02-04T19:14:31.669Z,-3.20
2019-02-04T19:16:58.276Z,-3.20
2019-02-04T19:19:24.786Z,-3.40
2019-02-04T19:21:51.173Z,-3.40
2019-02-04T19:24:17.619Z,-3.50
2019-02-04T19:26:43.996Z,-3.60
2019-02-04T19:29:10.257Z,-3.70
2019-02-04T19:31:36.768Z,-3.70
2019-02-04T19:34:03.557Z,-3.70
2019-02-04T19:36:30.067Z,-3.80
2019-02-04T19:38:56.324Z,-3.90
2019-02-04T19:41:22.820Z,-3.80
2019-02-04T19:43:49.248Z,-4.00
2019-02-04T19:46:15.616Z,-4.00
2019-02-04T19:48:43.764Z,-4.00
2019-02-04T19:51:10.112Z,-3.90
2019-02-04T19:53:36.917Z,-3.90
2019-02-04T19:56:03.560Z,-4.00
2019-02-04T19:58:29.945Z,-4.00
2019-02-04T20:00:56.325Z,-4.20
2019-02-04T20:03:22.719Z,-4.40
2019-02-04T20:05:51.257Z,-4.60
2019-02-04T20:08:17.399Z,-4.70
2019-02-04T20:10:43.881Z,-4.80
2019-02-04T20:13:10.456Z,-4.70
2019-02-04T20:15:36.966Z,-4.90
2019-02-04T20:18:03.733Z,-4.90
2019-02-04T20:20:30.337Z,-4.90
2019-02-04T20:22:57.042Z,-4.90
2019-02-04T20:25:30.978Z,-4.90
2019-02-04T20:27:57.878Z,-4.80
2019-02-04T20:30:26.849Z,-4.70
2019-02-04T20:32:53.261Z,-4.80
2019-02-04T20:35:19.525Z,-4.70
2019-02-04T20:37:45.976Z,-4.80
2019-02-04T20:40:18.349Z,-4.80
2019-02-04T20:42:44.869Z,-4.70
2019-02-04T20:45:13.151Z,-4.70
2019-02-04T20:47:42.414Z,-4.70
2019-02-04T20:50:23.165Z,-4.70
2019-02-04T20:52:49.542Z,-4.60
2019-02-04T20:55:16.036Z,-4.60
2019-02-04T20:57:42.403Z,-4.60
2019-02-04T21:00:12.464Z,-4.50
2019-02-04T21:02:39.670Z,-4.50
2019-02-04T21:05:06.470Z,-4.50
2019-02-04T21:07:32.749Z,-4.50
2019-02-04T21:09:59.140Z,-4.50
2019-02-04T21:12:25.441Z,-4.50
2019-02-04T21:14:51.710Z,-4.50
2019-02-04T21:17:18.132Z,-4.60
2019-02-04T21:19:44.857Z,-4.60
2019-02-04T21:22:11.251Z,-4.70
2019-02-04T21:24:37.525Z,-4.80
2019-02-04T21:27:04.270Z,-4.90
2019-02-04T21:29:30.778Z,-5.00
2019-02-04T21:31:57.171Z,-5.00
2019-02-04T21:34:23.504Z,-5.00
2019-02-04T21:36:49.966Z,-5.10
2019-02-04T21:39:16.550Z,-5.10
2019-02-04T21:41:42.835Z,-5.00
2019-02-04T21:44:09.316Z,-5.00
2019-02-04T21:46:35.608Z,-4.90
2019-02-04T21:49:02.109Z,-4.80
2019-02-04T21:51:28.403Z,-4.70
2019-02-04T21:53:54.671Z,-4.70
2019-02-04T21:56:20.949Z,-4.60
2019-02-04T21:58:47.604Z,-4.60
2019-02-04T22:01:13.867Z,-4.50
2019-02-04T22:03:40.193Z,-4.50
2019-02-04T22:06:06.538Z,-4.50
2019-02-04T22:08:32.804Z,-4.50
2019-02-04T22:10:59.249Z,-4.50
2019-02-04T22:13:25.656Z,-4.40
2019-02-04T22:15:52.132Z,-4.40
2019-02-04T22:18:18.431Z,-4.30
2019-02-04T22:20:45.223Z,-4.30
2019-02-04T22:23:11.477Z,-4.40
2019-02-04T22:25:38.146Z,-4.40
2019-02-04T22:28:04.640Z,-4.40
2019-02-04T22:30:30.991Z,-4.40
2019-02-04T22:32:57.442Z,-4.40
2019-02-04T22:35:23.969Z,-4.30
2019-02-04T22:37:50.395Z,-4.40
2019-02-04T22:40:19.265Z,-4.30
2019-02-04T22:42:45.615Z,-4.40
2019-02-04T22:45:14.259Z,-4.40
2019-02-04T22:47:40.754Z,-4.40
2019-02-04T22:50:10.852Z,-4.40
2019-02-04T22:52:37.118Z,-4.30
2019-02-04T22:55:05.797Z,-4.30
2019-02-04T22:57:32.363Z,-4.30
2019-02-04T22:59:58.628Z,-4.30
2019-02-04T23:02:25.120Z,-4.30
2019-02-04T23:04:51.468Z,-4.40
2019-02-04T23:07:17.844Z,-4.40
2019-02-04T23:09:44.112Z,-4.70
2019-02-04T23:12:10.480Z,-4.80
2019-02-04T23:14:36.833Z,-4.80
2019-02-04T23:17:03.597Z,-4.80
2019-02-04T23:19:29.994Z,-4.80
2019-02-04T23:21:56.272Z,-4.90
2019-02-04T23:24:22.633Z,-4.90
2019-02-04T23:26:48.988Z,-5.10
2019-02-04T23:29:15.369Z,-5.00
2019-02-04T23:31:41.658Z,-4.90
2019-02-04T23:34:08.316Z,-4.90
2019-02-04T23:36:35.106Z,-4.90
2019-02-04T23:39:01.574Z,-4.90
2019-02-04T23:41:27.832Z,-4.80
2019-02-04T23:43:54.095Z,-4.80
2019-02-04T23:46:21.089Z,-4.80
2019-02-04T23:48:47.444Z,-4.90
2019-02-04T23:51:13.737Z,-4.90
2019-02-04T23:53:40.409Z,-4.80
2019-02-04T23:56:06.783Z,-4.80
2019-02-04T23:58:33.067Z,-4.80
